Terminal Aerodrome Forecast
Issued by NWS Jacksonville, FL

Home | Current Version | Previous Version | Text Only | Print | Product List | Glossary On
Versions: 1 2 3 4 5 6 7 8 9 10 11 12 13 14 15 16 17 18 19 20 21
000
FTUS42 KJAX 021900 AAA
TAFGNV
TAF AMD
KGNV 021917Z 0219/0318 VRB06KT P6SM VCTS SCT040CB BKN250
      TEMPO 0219/0223 VRB12G22KT 3SM TSRA BKN035CB
     FM030100 18003KT P6SM SCT250
     FM031400 VRB03KT P6SM SCT030 SCT250=

USA.gov is the U.S. government's official web portal to all federal, state and local government web resources and services.